PWSweather.com
Personal Weather Stations
Station Observations
SD92115WX
El Cerrito Stoneybluff, San Diego, CA 92115

El Cerrito StoneybluffSan Diego, CA 92115

Lat: 32.754096, Lon: -117.066705

Elevation: 420

Station Type: Davis Vantage Vue

http://stoneybluff.com

High Low Average
Temperature 71.8°F22.1°C 48.0°F8.9°C 60.7°F15.9°C
Dew Point 51.6°F10.9°C 35.1°F1.7°C 43.9°F6.6°C
Winds 10.5 mph 16.9 kmh Calm Calm 2.0 mph S3.2 kmh S
Wind Gusts 19.0 mph30.6 kmh -- 5.0 mph8.0 kmh
Humidity 93% 27% 58%
Pressure 30.04 in1017.3 mb 29.94 in1013.9 mb -
Precipitation 0.00 in0.0 mm - -
Hour Temp Dew Point Humidity Winds Wind Gusts Pressure Precip Precip Rate Daily Precip Total
12:04 AM 57.0°F13.9°C 47.3°F8.5°C 70% 1.6 mph WNW2.6 kmh WNW 8.5 mph13.7 kmh 29.95 in1014.2 mb 0.00 in0.0 mm 0.00 in0.0 mm 0.00 in0.0 mm
12:09 AM 57.6°F14.2°C 45.5°F7.5°C 64% 3.4 mph NW5.5 kmh NW 8.5 mph13.7 kmh 29.95 in1014.2 mb 0.00 in0.0 mm 0.00 in0.0 mm 0.00 in0.0 mm
12:14 AM 57.7°F14.3°C 44.4°F6.9°C 61% 3.8 mph N6.1 kmh N 9.6 mph15.4 kmh 29.95 in1014.2 mb 0.00 in0.0 mm 0.00 in0.0 mm 0.00 in0.0 mm
12:19 AM 57.9°F14.4°C 44.1°F6.7°C 60% 2.5 mph W4.0 kmh W 5.4 mph8.7 kmh 29.95 in1014.2 mb 0.00 in0.0 mm 0.00 in0.0 mm 0.00 in0.0 mm
12:24 AM 58.1°F14.5°C 44.2°F6.8°C 60% 1.1 mph NNW1.8 kmh NNW 5.4 mph8.7 kmh 29.95 in1014.2 mb 0.00 in0.0 mm 0.00 in0.0 mm 0.00 in0.0 mm
12:29 AM 57.9°F14.4°C 43.7°F6.5°C 59% 0.4 mph NNE0.6 kmh NNE 6.3 mph10.1 kmh 29.95 in1014.2 mb 0.00 in0.0 mm 0.00 in0.0 mm 0.00 in0.0 mm
12:34 AM 57.7°F14.3°C 43.5°F6.4°C 59% 1.1 mph NNW1.8 kmh NNW 3.1 mph5.0 kmh 29.95 in1014.2 mb 0.00 in0.0 mm 0.00 in0.0 mm 0.00 in0.0 mm
12:39 AM 57.7°F14.3°C 43.5°F6.4°C 59% 1.1 mph NNE1.8 kmh NNE 5.4 mph8.7 kmh 29.95 in1014.2 mb 0.00 in0.0 mm 0.00 in0.0 mm 0.00 in0.0 mm
12:44 AM 57.7°F14.3°C 43.5°F6.4°C 59% Calm Calm 2.0 mph3.2 kmh 29.95 in1014.2 mb 0.00 in0.0 mm 0.00 in0.0 mm 0.00 in0.0 mm
12:49 AM 57.6°F14.2°C 43.3°F6.3°C 59% Calm Calm 1.1 mph1.8 kmh 29.95 in1014.2 mb 0.00 in0.0 mm 0.00 in0.0 mm 0.00 in0.0 mm
12:54 AM 57.2°F14.0°C 43.5°F6.4°C 60% 0.2 mph NW0.3 kmh NW 1.1 mph1.8 kmh 29.95 in1014.2 mb 0.00 in0.0 mm 0.00 in0.0 mm 0.00 in0.0 mm
12:59 AM 57.0°F13.9°C 43.3°F6.3°C 60% Calm Calm 2.0 mph3.2 kmh 29.95 in1014.2 mb 0.00 in0.0 mm 0.00 in0.0 mm 0.00 in0.0 mm
01:04 AM 56.8°F13.8°C 43.5°F6.4°C 61% Calm Calm -- 29.95 in1014.2 mb 0.00 in0.0 mm 0.00 in0.0 mm 0.00 in0.0 mm
01:09 AM 57.0°F13.9°C 43.7°F6.5°C 61% 0.2 mph NNE0.3 kmh NNE 3.1 mph5.0 kmh 29.95 in1014.2 mb 0.00 in0.0 mm 0.00 in0.0 mm 0.00 in0.0 mm
01:14 AM 56.8°F13.8°C 43.9°F6.6°C 62% Calm Calm -- 29.94 in1013.9 mb 0.00 in0.0 mm 0.00 in0.0 mm 0.00 in0.0 mm
01:19 AM 56.5°F13.6°C 44.1°F6.7°C 63% Calm Calm 1.1 mph1.8 kmh 29.95 in1014.2 mb 0.00 in0.0 mm 0.00 in0.0 mm 0.00 in0.0 mm
01:24 AM 56.3°F13.5°C 43.9°F6.6°C 63% Calm Calm 1.1 mph1.8 kmh 29.94 in1013.9 mb 0.00 in0.0 mm 0.00 in0.0 mm 0.00 in0.0 mm
01:29 AM 56.1°F13.4°C 44.1°F6.7°C 64% Calm Calm -- 29.94 in1013.9 mb 0.00 in0.0 mm 0.00 in0.0 mm 0.00 in0.0 mm
01:34 AM 55.9°F13.3°C 43.9°F6.6°C 64% Calm Calm -- 29.94 in1013.9 mb 0.00 in0.0 mm 0.00 in0.0 mm 0.00 in0.0 mm
01:39 AM 55.6°F13.1°C 44.1°F6.7°C 65% Calm Calm -- 29.95 in1014.2 mb 0.00 in0.0 mm 0.00 in0.0 mm 0.00 in0.0 mm
01:44 AM 55.2°F12.9°C 44.1°F6.7°C 66% Calm Calm -- 29.94 in1013.9 mb 0.00 in0.0 mm 0.00 in0.0 mm 0.00 in0.0 mm
01:49 AM 55.0°F12.8°C 44.2°F6.8°C 67% Calm Calm -- 29.95 in1014.2 mb 0.00 in0.0 mm 0.00 in0.0 mm 0.00 in0.0 mm
01:54 AM 55.0°F12.8°C 44.6°F7.0°C 68% Calm Calm -- 29.94 in1013.9 mb 0.00 in0.0 mm 0.00 in0.0 mm 0.00 in0.0 mm
01:59 AM 54.9°F12.7°C 44.4°F6.9°C 68% Calm Calm -- 29.94 in1013.9 mb 0.00 in0.0 mm 0.00 in0.0 mm 0.00 in0.0 mm
02:04 AM 54.5°F12.5°C 44.6°F7.0°C 69% Calm Calm -- 29.94 in1013.9 mb 0.00 in0.0 mm 0.00 in0.0 mm 0.00 in0.0 mm
02:09 AM 54.7°F12.6°C 44.8°F7.1°C 69% Calm Calm -- 29.95 in1014.2 mb 0.00 in0.0 mm 0.00 in0.0 mm 0.00 in0.0 mm
02:14 AM 54.5°F12.5°C 44.6°F7.0°C 69% Calm Calm -- 29.95 in1014.2 mb 0.00 in0.0 mm 0.00 in0.0 mm 0.00 in0.0 mm
02:19 AM 54.1°F12.3°C 44.2°F6.8°C 69% Calm Calm -- 29.95 in1014.2 mb 0.00 in0.0 mm 0.00 in0.0 mm 0.00 in0.0 mm
02:24 AM 54.1°F12.3°C 44.6°F7.0°C 70% Calm Calm -- 29.95 in1014.2 mb 0.00 in0.0 mm 0.00 in0.0 mm 0.00 in0.0 mm
02:29 AM 54.1°F12.3°C 45.0°F7.2°C 71% Calm Calm -- 29.95 in1014.2 mb 0.00 in0.0 mm 0.00 in0.0 mm 0.00 in0.0 mm
02:34 AM 54.0°F12.2°C 44.8°F7.1°C 71% Calm Calm -- 29.95 in1014.2 mb 0.00 in0.0 mm 0.00 in0.0 mm 0.00 in0.0 mm
02:39 AM 53.4°F11.9°C 44.2°F6.8°C 71% Calm Calm -- 29.95 in1014.2 mb 0.00 in0.0 mm 0.00 in0.0 mm 0.00 in0.0 mm
02:44 AM 52.9°F11.6°C 43.7°F6.5°C 71% Calm Calm -- 29.95 in1014.2 mb 0.00 in0.0 mm 0.00 in0.0 mm 0.00 in0.0 mm
02:49 AM 52.5°F11.4°C 44.4°F6.9°C 74% Calm Calm -- 29.95 in1014.2 mb 0.00 in0.0 mm 0.00 in0.0 mm 0.00 in0.0 mm
02:54 AM 52.3°F11.3°C 45.0°F7.2°C 76% Calm Calm 1.1 mph1.8 kmh 29.95 in1014.2 mb 0.00 in0.0 mm 0.00 in0.0 mm 0.00 in0.0 mm
02:59 AM 52.0°F11.1°C 45.0°F7.2°C 77% Calm Calm 1.1 mph1.8 kmh 29.95 in1014.2 mb 0.00 in0.0 mm 0.00 in0.0 mm 0.00 in0.0 mm
03:04 AM 51.4°F10.8°C 44.4°F6.9°C 77% Calm Calm -- 29.96 in1014.6 mb 0.00 in0.0 mm 0.00 in0.0 mm 0.00 in0.0 mm
03:09 AM 51.3°F10.7°C 45.0°F7.2°C 79% Calm Calm -- 29.96 in1014.6 mb 0.00 in0.0 mm 0.00 in0.0 mm 0.00 in0.0 mm
03:14 AM 50.9°F10.5°C 45.0°F7.2°C 80% Calm Calm -- 29.96 in1014.6 mb 0.00 in0.0 mm 0.00 in0.0 mm 0.00 in0.0 mm
03:19 AM 51.1°F10.6°C 45.5°F7.5°C 81% Calm Calm -- 29.95 in1014.2 mb 0.00 in0.0 mm 0.00 in0.0 mm 0.00 in0.0 mm
03:24 AM 50.7°F10.4°C 45.1°F7.3°C 81% Calm Calm -- 29.96 in1014.6 mb 0.00 in0.0 mm 0.00 in0.0 mm 0.00 in0.0 mm
03:29 AM 50.5°F10.3°C 45.3°F7.4°C 82% Calm Calm -- 29.96 in1014.6 mb 0.00 in0.0 mm 0.00 in0.0 mm 0.00 in0.0 mm
03:34 AM 50.5°F10.3°C 45.5°F7.5°C 83% Calm Calm -- 29.96 in1014.6 mb 0.00 in0.0 mm 0.00 in0.0 mm 0.00 in0.0 mm
03:39 AM 51.1°F10.6°C 46.8°F8.2°C 85% Calm Calm -- 29.96 in1014.6 mb 0.00 in0.0 mm 0.00 in0.0 mm 0.00 in0.0 mm
03:44 AM 51.4°F10.8°C 47.5°F8.6°C 86% Calm Calm -- 29.96 in1014.6 mb 0.00 in0.0 mm 0.00 in0.0 mm 0.00 in0.0 mm
03:49 AM 51.1°F10.6°C 46.8°F8.2°C 85% Calm Calm -- 29.97 in1014.9 mb 0.00 in0.0 mm 0.00 in0.0 mm 0.00 in0.0 mm
03:54 AM 50.7°F10.4°C 46.4°F8.0°C 85% Calm Calm -- 29.97 in1014.9 mb 0.00 in0.0 mm 0.00 in0.0 mm 0.00 in0.0 mm
03:59 AM 50.7°F10.4°C 46.8°F8.2°C 86% Calm Calm -- 29.97 in1014.9 mb 0.00 in0.0 mm 0.00 in0.0 mm 0.00 in0.0 mm
04:04 AM 50.5°F10.3°C 46.6°F8.1°C 86% Calm Calm -- 29.97 in1014.9 mb 0.00 in0.0 mm 0.00 in0.0 mm 0.00 in0.0 mm
04:09 AM 50.5°F10.3°C 46.6°F8.1°C 86% Calm Calm -- 29.97 in1014.9 mb 0.00 in0.0 mm 0.00 in0.0 mm 0.00 in0.0 mm
04:14 AM 50.4°F10.2°C 46.6°F8.1°C 87% Calm Calm -- 29.97 in1014.9 mb 0.00 in0.0 mm 0.00 in0.0 mm 0.00 in0.0 mm
04:19 AM 50.2°F10.1°C 46.4°F8.0°C 87% Calm Calm -- 29.97 in1014.9 mb 0.00 in0.0 mm 0.00 in0.0 mm 0.00 in0.0 mm
04:24 AM 50.0°F10.0°C 46.2°F7.9°C 87% Calm Calm -- 29.97 in1014.9 mb 0.00 in0.0 mm 0.00 in0.0 mm 0.00 in0.0 mm
04:29 AM 49.6°F9.8°C 46.2°F7.9°C 88% Calm Calm -- 29.98 in1015.2 mb 0.00 in0.0 mm 0.00 in0.0 mm 0.00 in0.0 mm
04:34 AM 49.3°F9.6°C 45.9°F7.7°C 88% Calm Calm -- 29.98 in1015.2 mb 0.00 in0.0 mm 0.00 in0.0 mm 0.00 in0.0 mm
04:39 AM 49.5°F9.7°C 46.4°F8.0°C 89% Calm Calm -- 29.98 in1015.2 mb 0.00 in0.0 mm 0.00 in0.0 mm 0.00 in0.0 mm
04:44 AM 49.3°F9.6°C 46.2°F7.9°C 89% Calm Calm -- 29.98 in1015.2 mb 0.00 in0.0 mm 0.00 in0.0 mm 0.00 in0.0 mm
04:49 AM 49.1°F9.5°C 46.0°F7.8°C 89% Calm Calm -- 29.98 in1015.2 mb 0.00 in0.0 mm 0.00 in0.0 mm 0.00 in0.0 mm
04:54 AM 48.9°F9.4°C 45.9°F7.7°C 89% Calm Calm -- 29.98 in1015.2 mb 0.00 in0.0 mm 0.00 in0.0 mm 0.00 in0.0 mm
04:59 AM 48.7°F9.3°C 45.7°F7.6°C 89% Calm Calm -- 29.98 in1015.2 mb 0.00 in0.0 mm 0.00 in0.0 mm 0.00 in0.0 mm
05:04 AM 48.4°F9.1°C 45.3°F7.4°C 89% Calm Calm -- 29.98 in1015.2 mb 0.00 in0.0 mm 0.00 in0.0 mm 0.00 in0.0 mm
05:09 AM 48.0°F8.9°C 45.1°F7.3°C 90% Calm Calm -- 29.99 in1015.6 mb 0.00 in0.0 mm 0.00 in0.0 mm 0.00 in0.0 mm
05:14 AM 48.4°F9.1°C 45.9°F7.7°C 91% Calm Calm -- 29.99 in1015.6 mb 0.00 in0.0 mm 0.00 in0.0 mm 0.00 in0.0 mm
05:19 AM 48.4°F9.1°C 45.9°F7.7°C 91% Calm Calm -- 29.99 in1015.6 mb 0.00 in0.0 mm 0.00 in0.0 mm 0.00 in0.0 mm
05:24 AM 48.4°F9.1°C 45.9°F7.7°C 91% Calm Calm -- 30.00 in1015.9 mb 0.00 in0.0 mm 0.00 in0.0 mm 0.00 in0.0 mm
05:29 AM 48.2°F9.0°C 45.7°F7.6°C 91% Calm Calm -- 30.00 in1015.9 mb 0.00 in0.0 mm 0.00 in0.0 mm 0.00 in0.0 mm
05:34 AM 48.2°F9.0°C 45.7°F7.6°C 91% Calm Calm -- 30.00 in1015.9 mb 0.00 in0.0 mm 0.00 in0.0 mm 0.00 in0.0 mm
05:39 AM 48.0°F8.9°C 45.5°F7.5°C 91% Calm Calm -- 30.00 in1015.9 mb 0.00 in0.0 mm 0.00 in0.0 mm 0.00 in0.0 mm
05:44 AM 48.0°F8.9°C 45.5°F7.5°C 91% Calm Calm -- 30.00 in1015.9 mb 0.00 in0.0 mm 0.00 in0.0 mm 0.00 in0.0 mm
05:49 AM 48.2°F9.0°C 46.0°F7.8°C 92% Calm Calm -- 30.00 in1015.9 mb 0.00 in0.0 mm 0.00 in0.0 mm 0.00 in0.0 mm
05:54 AM 48.4°F9.1°C 46.2°F7.9°C 92% Calm Calm -- 30.00 in1015.9 mb 0.00 in0.0 mm 0.00 in0.0 mm 0.00 in0.0 mm
05:59 AM 48.7°F9.3°C 46.8°F8.2°C 93% Calm Calm -- 30.01 in1016.3 mb 0.00 in0.0 mm 0.00 in0.0 mm 0.00 in0.0 mm
06:04 AM 48.9°F9.4°C 46.9°F8.3°C 93% Calm Calm -- 30.01 in1016.3 mb 0.00 in0.0 mm 0.00 in0.0 mm 0.00 in0.0 mm
06:09 AM 49.6°F9.8°C 47.7°F8.7°C 93% Calm Calm -- 30.01 in1016.3 mb 0.00 in0.0 mm 0.00 in0.0 mm 0.00 in0.0 mm
06:14 AM 50.4°F10.2°C 48.4°F9.1°C 93% Calm Calm -- 30.01 in1016.3 mb 0.00 in0.0 mm 0.00 in0.0 mm 0.00 in0.0 mm
06:19 AM 51.3°F10.7°C 49.3°F9.6°C 93% Calm Calm -- 30.02 in1016.6 mb 0.00 in0.0 mm 0.00 in0.0 mm 0.00 in0.0 mm
06:24 AM 52.0°F11.1°C 49.6°F9.8°C 92% Calm Calm -- 30.02 in1016.6 mb 0.00 in0.0 mm 0.00 in0.0 mm 0.00 in0.0 mm
06:29 AM 52.5°F11.4°C 50.2°F10.1°C 92% Calm Calm -- 30.02 in1016.6 mb 0.00 in0.0 mm 0.00 in0.0 mm 0.00 in0.0 mm
06:34 AM 52.9°F11.6°C 50.0°F10.0°C 90% Calm Calm -- 30.02 in1016.6 mb 0.00 in0.0 mm 0.00 in0.0 mm 0.00 in0.0 mm
06:39 AM 53.4°F11.9°C 50.9°F10.5°C 91% Calm Calm -- 30.03 in1016.9 mb 0.00 in0.0 mm 0.00 in0.0 mm 0.00 in0.0 mm
06:44 AM 54.5°F12.5°C 51.6°F10.9°C 90% Calm Calm 1.1 mph1.8 kmh 30.03 in1016.9 mb 0.00 in0.0 mm 0.00 in0.0 mm 0.00 in0.0 mm
06:49 AM 54.9°F12.7°C 51.4°F10.8°C 88% Calm Calm -- 30.03 in1016.9 mb 0.00 in0.0 mm 0.00 in0.0 mm 0.00 in0.0 mm
06:54 AM 55.2°F12.9°C 51.4°F10.8°C 87% Calm Calm 2.0 mph3.2 kmh 30.03 in1016.9 mb 0.00 in0.0 mm 0.00 in0.0 mm 0.00 in0.0 mm
06:59 AM 55.2°F12.9°C 51.1°F10.6°C 86% Calm Calm 1.1 mph1.8 kmh 30.03 in1016.9 mb 0.00 in0.0 mm 0.00 in0.0 mm 0.00 in0.0 mm
07:04 AM 55.6°F13.1°C 51.1°F10.6°C 85% Calm Calm 1.1 mph1.8 kmh 30.03 in1016.9 mb 0.00 in0.0 mm 0.00 in0.0 mm 0.00 in0.0 mm
07:09 AM 55.6°F13.1°C 50.9°F10.5°C 84% Calm Calm -- 30.03 in1016.9 mb 0.00 in0.0 mm 0.00 in0.0 mm 0.00 in0.0 mm
07:14 AM 55.8°F13.2°C 51.1°F10.6°C 84% 0.2 mph NNW0.3 kmh NNW 2.0 mph3.2 kmh 30.03 in1016.9 mb 0.00 in0.0 mm 0.00 in0.0 mm 0.00 in0.0 mm
07:19 AM 56.1°F13.4°C 51.1°F10.6°C 83% Calm Calm 2.0 mph3.2 kmh 30.03 in1016.9 mb 0.00 in0.0 mm 0.00 in0.0 mm 0.00 in0.0 mm
07:24 AM 56.7°F13.7°C 51.3°F10.7°C 82% Calm Calm 1.1 mph1.8 kmh 30.03 in1016.9 mb 0.00 in0.0 mm 0.00 in0.0 mm 0.00 in0.0 mm
07:29 AM 57.0°F13.9°C 50.9°F10.5°C 80% 0.2 mph E0.3 kmh E 2.0 mph3.2 kmh 30.03 in1016.9 mb 0.00 in0.0 mm 0.00 in0.0 mm 0.00 in0.0 mm
07:34 AM 57.6°F14.2°C 51.1°F10.6°C 79% Calm Calm 1.1 mph1.8 kmh 30.03 in1016.9 mb 0.00 in0.0 mm 0.00 in0.0 mm 0.00 in0.0 mm
07:39 AM 58.3°F14.6°C 50.4°F10.2°C 75% Calm Calm -- 30.03 in1016.9 mb 0.00 in0.0 mm 0.00 in0.0 mm 0.00 in0.0 mm
07:44 AM 58.6°F14.8°C 50.0°F10.0°C 73% 0.2 mph NW0.3 kmh NW 2.0 mph3.2 kmh 30.03 in1016.9 mb 0.00 in0.0 mm 0.00 in0.0 mm 0.00 in0.0 mm
07:49 AM 58.6°F14.8°C 48.6°F9.2°C 69% 1.1 mph N1.8 kmh N 3.1 mph5.0 kmh 30.03 in1016.9 mb 0.00 in0.0 mm 0.00 in0.0 mm 0.00 in0.0 mm
07:54 AM 59.0°F15.0°C 47.3°F8.5°C 65% 2.9 mph NW4.7 kmh NW 5.4 mph8.7 kmh 30.03 in1016.9 mb 0.00 in0.0 mm 0.00 in0.0 mm 0.00 in0.0 mm
07:59 AM 59.5°F15.3°C 46.6°F8.1°C 62% 0.4 mph N0.6 kmh N 3.1 mph5.0 kmh 30.03 in1016.9 mb 0.00 in0.0 mm 0.00 in0.0 mm 0.00 in0.0 mm
08:04 AM 60.1°F15.6°C 46.2°F7.9°C 60% 1.1 mph WNW1.8 kmh WNW 4.3 mph6.9 kmh 30.03 in1016.9 mb 0.00 in0.0 mm 0.00 in0.0 mm 0.00 in0.0 mm
08:09 AM 60.3°F15.7°C 45.5°F7.5°C 58% 1.1 mph N1.8 kmh N 4.3 mph6.9 kmh 30.04 in1017.3 mb 0.00 in0.0 mm 0.00 in0.0 mm 0.00 in0.0 mm
08:14 AM 60.6°F15.9°C 45.7°F7.6°C 58% 1.1 mph NW1.8 kmh NW 4.3 mph6.9 kmh 30.04 in1017.3 mb 0.00 in0.0 mm 0.00 in0.0 mm 0.00 in0.0 mm
08:19 AM 61.0°F16.1°C 45.7°F7.6°C 57% 0.2 mph NW0.3 kmh NW 4.3 mph6.9 kmh 30.04 in1017.3 mb 0.00 in0.0 mm 0.00 in0.0 mm 0.00 in0.0 mm
08:24 AM 61.5°F16.4°C 45.1°F7.3°C 55% 1.6 mph WNW2.6 kmh WNW 4.3 mph6.9 kmh 30.03 in1016.9 mb 0.00 in0.0 mm 0.00 in0.0 mm 0.00 in0.0 mm
08:29 AM 61.5°F16.4°C 44.8°F7.1°C 54% 0.9 mph NNW1.4 kmh NNW 5.4 mph8.7 kmh 30.03 in1016.9 mb 0.00 in0.0 mm 0.00 in0.0 mm 0.00 in0.0 mm
08:34 AM 61.9°F16.6°C 44.1°F6.7°C 52% 0.9 mph N1.4 kmh N 4.3 mph6.9 kmh 30.03 in1016.9 mb 0.00 in0.0 mm 0.00 in0.0 mm 0.00 in0.0 mm
08:39 AM 62.2°F16.8°C 45.0°F7.2°C 53% 2.7 mph NNE4.3 kmh NNE 5.4 mph8.7 kmh 30.03 in1016.9 mb 0.00 in0.0 mm 0.00 in0.0 mm 0.00 in0.0 mm
08:44 AM 62.8°F17.1°C 45.0°F7.2°C 52% 0.4 mph S0.6 kmh S 3.1 mph5.0 kmh 30.03 in1016.9 mb 0.00 in0.0 mm 0.00 in0.0 mm 0.00 in0.0 mm
08:49 AM 63.7°F17.6°C 44.8°F7.1°C 50% 2.2 mph NW3.5 kmh NW 5.4 mph8.7 kmh 30.03 in1016.9 mb 0.00 in0.0 mm 0.00 in0.0 mm 0.00 in0.0 mm
08:54 AM 63.7°F17.6°C 44.8°F7.1°C 50% 0.7 mph NE1.1 kmh NE 4.3 mph6.9 kmh 30.03 in1016.9 mb 0.00 in0.0 mm 0.00 in0.0 mm 0.00 in0.0 mm
08:59 AM 64.2°F17.9°C 43.0°F6.1°C 46% 2.0 mph WNW3.2 kmh WNW 6.3 mph10.1 kmh 30.03 in1016.9 mb 0.00 in0.0 mm 0.00 in0.0 mm 0.00 in0.0 mm
09:04 AM 64.8°F18.2°C 43.5°F6.4°C 46% 2.2 mph N3.5 kmh N 5.4 mph8.7 kmh 30.03 in1016.9 mb 0.00 in0.0 mm 0.00 in0.0 mm 0.00 in0.0 mm
09:09 AM 64.8°F18.2°C 43.0°F6.1°C 45% 2.9 mph NNE4.7 kmh NNE 9.6 mph15.4 kmh 30.03 in1016.9 mb 0.00 in0.0 mm 0.00 in0.0 mm 0.00 in0.0 mm
09:14 AM 64.8°F18.2°C 42.3°F5.7°C 44% 1.8 mph NW2.9 kmh NW 11.6 mph18.7 kmh 30.03 in1016.9 mb 0.00 in0.0 mm 0.00 in0.0 mm 0.00 in0.0 mm
09:19 AM 65.1°F18.4°C 42.1°F5.6°C 43% 1.3 mph WSW2.1 kmh WSW 6.3 mph10.1 kmh 30.03 in1016.9 mb 0.00 in0.0 mm 0.00 in0.0 mm 0.00 in0.0 mm
09:24 AM 65.5°F18.6°C 41.2°F5.1°C 41% 2.9 mph NW4.7 kmh NW 9.6 mph15.4 kmh 30.03 in1016.9 mb 0.00 in0.0 mm 0.00 in0.0 mm 0.00 in0.0 mm
09:29 AM 66.0°F18.9°C 41.7°F5.4°C 41% 2.2 mph N3.5 kmh N 8.5 mph13.7 kmh 30.03 in1016.9 mb 0.00 in0.0 mm 0.00 in0.0 mm 0.00 in0.0 mm
09:34 AM 66.7°F19.3°C 41.0°F5.0°C 39% 2.9 mph WNW4.7 kmh WNW 6.3 mph10.1 kmh 30.03 in1016.9 mb 0.00 in0.0 mm 0.00 in0.0 mm 0.00 in0.0 mm
09:39 AM 67.1°F19.5°C 39.9°F4.4°C 37% 4.3 mph NW6.9 kmh NW 8.5 mph13.7 kmh 30.03 in1016.9 mb 0.00 in0.0 mm 0.00 in0.0 mm 0.00 in0.0 mm
09:44 AM 67.5°F19.7°C 40.3°F4.6°C 37% 0.2 mph W0.3 kmh W 8.5 mph13.7 kmh 30.02 in1016.6 mb 0.00 in0.0 mm 0.00 in0.0 mm 0.00 in0.0 mm
09:49 AM 68.2°F20.1°C 41.0°F5.0°C 37% 3.4 mph NW5.5 kmh NW 8.5 mph13.7 kmh 30.02 in1016.6 mb 0.00 in0.0 mm 0.00 in0.0 mm 0.00 in0.0 mm
09:54 AM 68.4°F20.2°C 39.6°F4.2°C 35% 2.9 mph NNW4.7 kmh NNW 8.5 mph13.7 kmh 30.02 in1016.6 mb 0.00 in0.0 mm 0.00 in0.0 mm 0.00 in0.0 mm
09:59 AM 68.9°F20.5°C 37.8°F3.2°C 32% 4.3 mph WNW6.9 kmh WNW 8.5 mph13.7 kmh 30.02 in1016.6 mb 0.00 in0.0 mm 0.00 in0.0 mm 0.00 in0.0 mm
10:04 AM 69.3°F20.7°C 38.1°F3.4°C 32% 2.2 mph NW3.5 kmh NW 9.6 mph15.4 kmh 30.02 in1016.6 mb 0.00 in0.0 mm 0.00 in0.0 mm 0.00 in0.0 mm
10:09 AM 69.8°F21.0°C 37.8°F3.2°C 31% 3.8 mph NW6.1 kmh NW 9.6 mph15.4 kmh 30.02 in1016.6 mb 0.00 in0.0 mm 0.00 in0.0 mm 0.00 in0.0 mm
10:14 AM 69.6°F20.9°C 36.9°F2.7°C 30% 6.3 mph NW10.1 kmh NW 10.5 mph16.9 kmh 30.01 in1016.3 mb 0.00 in0.0 mm 0.00 in0.0 mm 0.00 in0.0 mm
10:19 AM 69.8°F21.0°C 35.2°F1.8°C 28% 5.8 mph NNW9.3 kmh NNW 8.5 mph13.7 kmh 30.01 in1016.3 mb 0.00 in0.0 mm 0.00 in0.0 mm 0.00 in0.0 mm
10:24 AM 69.6°F20.9°C 36.0°F2.2°C 29% 2.5 mph WNW4.0 kmh WNW 10.5 mph16.9 kmh 30.01 in1016.3 mb 0.00 in0.0 mm 0.00 in0.0 mm 0.00 in0.0 mm
10:29 AM 70.5°F21.4°C 35.8°F2.1°C 28% 2.5 mph NW4.0 kmh NW 6.3 mph10.1 kmh 30.01 in1016.3 mb 0.00 in0.0 mm 0.00 in0.0 mm 0.00 in0.0 mm
10:34 AM 70.7°F21.5°C 35.1°F1.7°C 27% 2.2 mph NW3.5 kmh NW 9.6 mph15.4 kmh 30.01 in1016.3 mb 0.00 in0.0 mm 0.00 in0.0 mm 0.00 in0.0 mm
10:39 AM 71.1°F21.7°C 36.3°F2.4°C 28% 2.9 mph NW4.7 kmh NW 10.5 mph16.9 kmh 30.01 in1016.3 mb 0.00 in0.0 mm 0.00 in0.0 mm 0.00 in0.0 mm
10:44 AM 71.6°F22.0°C 36.7°F2.6°C 28% 2.0 mph NW3.2 kmh NW 8.5 mph13.7 kmh 30.01 in1016.3 mb 0.00 in0.0 mm 0.00 in0.0 mm 0.00 in0.0 mm
10:49 AM 71.8°F22.1°C 37.8°F3.2°C 29% 3.4 mph WNW5.5 kmh WNW 10.5 mph16.9 kmh 30.01 in1016.3 mb 0.00 in0.0 mm 0.00 in0.0 mm 0.00 in0.0 mm
10:54 AM 71.2°F21.8°C 37.4°F3.0°C 29% 3.6 mph NE5.8 kmh NE 10.5 mph16.9 kmh 30.01 in1016.3 mb 0.00 in0.0 mm 0.00 in0.0 mm 0.00 in0.0 mm
10:59 AM 71.1°F21.7°C 39.7°F4.3°C 32% 6.7 mph SW10.8 kmh SW 11.6 mph18.7 kmh 30.00 in1015.9 mb 0.00 in0.0 mm 0.00 in0.0 mm 0.00 in0.0 mm
11:04 AM 70.5°F21.4°C 38.5°F3.6°C 31% 6.0 mph SW9.7 kmh SW 15.9 mph25.6 kmh 30.01 in1016.3 mb 0.00 in0.0 mm 0.00 in0.0 mm 0.00 in0.0 mm
11:09 AM 70.9°F21.6°C 41.2°F5.1°C 34% 5.1 mph NW8.2 kmh NW 11.6 mph18.7 kmh 30.00 in1015.9 mb 0.00 in0.0 mm 0.00 in0.0 mm 0.00 in0.0 mm
11:14 AM 71.2°F21.8°C 38.3°F3.5°C 30% 6.5 mph W10.5 kmh W 12.8 mph20.6 kmh 30.00 in1015.9 mb 0.00 in0.0 mm 0.00 in0.0 mm 0.00 in0.0 mm
11:19 AM 70.9°F21.6°C 38.7°F3.7°C 31% 6.9 mph SW11.1 kmh SW 13.9 mph22.4 kmh 30.00 in1015.9 mb 0.00 in0.0 mm 0.00 in0.0 mm 0.00 in0.0 mm
11:24 AM 70.0°F21.1°C 41.7°F5.4°C 36% 8.9 mph W14.3 kmh W 18.1 mph29.1 kmh 30.00 in1015.9 mb 0.00 in0.0 mm 0.00 in0.0 mm 0.00 in0.0 mm
11:29 AM 69.6°F20.9°C 42.3°F5.7°C 37% 7.8 mph WSW12.6 kmh WSW 15.9 mph25.6 kmh 29.99 in1015.6 mb 0.00 in0.0 mm 0.00 in0.0 mm 0.00 in0.0 mm
11:34 AM 69.6°F20.9°C 42.3°F5.7°C 37% 6.9 mph WSW11.1 kmh WSW 15.9 mph25.6 kmh 29.99 in1015.6 mb 0.00 in0.0 mm 0.00 in0.0 mm 0.00 in0.0 mm
11:39 AM 70.5°F21.4°C 42.3°F5.7°C 36% 5.8 mph WNW9.3 kmh WNW 10.5 mph16.9 kmh 30.00 in1015.9 mb 0.00 in0.0 mm 0.00 in0.0 mm 0.00 in0.0 mm
11:44 AM 70.2°F21.2°C 42.6°F5.9°C 37% 5.1 mph SSW8.2 kmh SSW 11.6 mph18.7 kmh 30.00 in1015.9 mb 0.00 in0.0 mm 0.00 in0.0 mm 0.00 in0.0 mm
11:49 AM 70.5°F21.4°C 45.0°F7.2°C 40% 6.3 mph WSW10.1 kmh WSW 13.9 mph22.4 kmh 30.00 in1015.9 mb 0.00 in0.0 mm 0.00 in0.0 mm 0.00 in0.0 mm
11:54 AM 70.5°F21.4°C 45.0°F7.2°C 40% 8.9 mph WSW14.3 kmh WSW 13.9 mph22.4 kmh 29.99 in1015.6 mb 0.00 in0.0 mm 0.00 in0.0 mm 0.00 in0.0 mm
11:59 AM 70.0°F21.1°C 44.6°F7.0°C 40% 6.9 mph WNW11.1 kmh WNW 17.0 mph27.4 kmh 29.99 in1015.6 mb 0.00 in0.0 mm 0.00 in0.0 mm 0.00 in0.0 mm
12:04 PM 69.8°F21.0°C 43.0°F6.1°C 38% 8.7 mph SW14.0 kmh SW 15.9 mph25.6 kmh 29.99 in1015.6 mb 0.00 in0.0 mm 0.00 in0.0 mm 0.00 in0.0 mm
12:09 PM 70.3°F21.3°C 42.1°F5.6°C 36% 5.8 mph NW9.3 kmh NW 13.9 mph22.4 kmh 29.99 in1015.6 mb 0.00 in0.0 mm 0.00 in0.0 mm 0.00 in0.0 mm
12:14 PM 70.3°F21.3°C 39.9°F4.4°C 33% 6.9 mph NW11.1 kmh NW 14.8 mph23.8 kmh 29.99 in1015.6 mb 0.00 in0.0 mm 0.00 in0.0 mm 0.00 in0.0 mm
12:19 PM 70.3°F21.3°C 39.0°F3.9°C 32% 8.1 mph W13.0 kmh W 13.9 mph22.4 kmh 29.99 in1015.6 mb 0.00 in0.0 mm 0.00 in0.0 mm 0.00 in0.0 mm
12:24 PM 70.3°F21.3°C 40.6°F4.8°C 34% 6.0 mph NW9.7 kmh NW 11.6 mph18.7 kmh 29.99 in1015.6 mb 0.00 in0.0 mm 0.00 in0.0 mm 0.00 in0.0 mm
12:29 PM 70.7°F21.5°C 41.0°F5.0°C 34% 8.9 mph NNW14.3 kmh NNW 13.9 mph22.4 kmh 29.99 in1015.6 mb 0.00 in0.0 mm 0.00 in0.0 mm 0.00 in0.0 mm
12:34 PM 70.7°F21.5°C 40.1°F4.5°C 33% 8.1 mph NW13.0 kmh NW 14.8 mph23.8 kmh 29.99 in1015.6 mb 0.00 in0.0 mm 0.00 in0.0 mm 0.00 in0.0 mm
12:39 PM 70.2°F21.2°C 41.2°F5.1°C 35% 9.2 mph NW14.8 kmh NW 14.8 mph23.8 kmh 29.99 in1015.6 mb 0.00 in0.0 mm 0.00 in0.0 mm 0.00 in0.0 mm
12:44 PM 70.0°F21.1°C 41.7°F5.4°C 36% 8.1 mph WNW13.0 kmh WNW 17.0 mph27.4 kmh 29.99 in1015.6 mb 0.00 in0.0 mm 0.00 in0.0 mm 0.00 in0.0 mm
12:49 PM 69.3°F20.7°C 41.9°F5.5°C 37% 9.8 mph NW15.8 kmh NW 17.0 mph27.4 kmh 29.99 in1015.6 mb 0.00 in0.0 mm 0.00 in0.0 mm 0.00 in0.0 mm
12:54 PM 69.4°F20.8°C 43.3°F6.3°C 39% 9.2 mph SW14.8 kmh SW 14.8 mph23.8 kmh 29.99 in1015.6 mb 0.00 in0.0 mm 0.00 in0.0 mm 0.00 in0.0 mm
12:59 PM 69.3°F20.7°C 43.2°F6.2°C 39% 8.3 mph WNW13.4 kmh WNW 14.8 mph23.8 kmh 29.99 in1015.6 mb 0.00 in0.0 mm 0.00 in0.0 mm 0.00 in0.0 mm
01:04 PM 69.4°F20.8°C 42.1°F5.6°C 37% 6.5 mph WSW10.5 kmh WSW 15.9 mph25.6 kmh 29.98 in1015.2 mb 0.00 in0.0 mm 0.00 in0.0 mm 0.00 in0.0 mm
01:09 PM 69.4°F20.8°C 43.3°F6.3°C 39% 5.6 mph NW9.0 kmh NW 14.8 mph23.8 kmh 29.99 in1015.6 mb 0.00 in0.0 mm 0.00 in0.0 mm 0.00 in0.0 mm
01:14 PM 69.4°F20.8°C 42.1°F5.6°C 37% 9.8 mph W15.8 kmh W 17.0 mph27.4 kmh 29.99 in1015.6 mb 0.00 in0.0 mm 0.00 in0.0 mm 0.00 in0.0 mm
01:19 PM 69.1°F20.6°C 42.4°F5.8°C 38% 8.5 mph WSW13.7 kmh WSW 15.9 mph25.6 kmh 29.98 in1015.2 mb 0.00 in0.0 mm 0.00 in0.0 mm 0.00 in0.0 mm
01:24 PM 69.3°F20.7°C 41.9°F5.5°C 37% 9.8 mph W15.8 kmh W 13.9 mph22.4 kmh 29.99 in1015.6 mb 0.00 in0.0 mm 0.00 in0.0 mm 0.00 in0.0 mm
01:29 PM 69.1°F20.6°C 42.4°F5.8°C 38% 6.5 mph WNW10.5 kmh WNW 18.1 mph29.1 kmh 29.99 in1015.6 mb 0.00 in0.0 mm 0.00 in0.0 mm 0.00 in0.0 mm
01:34 PM 69.1°F20.6°C 40.3°F4.6°C 35% 10.1 mph WNW16.3 kmh WNW 17.0 mph27.4 kmh 29.99 in1015.6 mb 0.00 in0.0 mm 0.00 in0.0 mm 0.00 in0.0 mm
01:39 PM 68.9°F20.5°C 40.1°F4.5°C 35% 8.7 mph NW14.0 kmh NW 17.0 mph27.4 kmh 29.99 in1015.6 mb 0.00 in0.0 mm 0.00 in0.0 mm 0.00 in0.0 mm
01:44 PM 69.1°F20.6°C 39.6°F4.2°C 34% 10.5 mph NW16.9 kmh NW 17.0 mph27.4 kmh 29.98 in1015.2 mb 0.00 in0.0 mm 0.00 in0.0 mm 0.00 in0.0 mm
01:49 PM 69.3°F20.7°C 40.5°F4.7°C 35% 8.3 mph N13.4 kmh N 14.8 mph23.8 kmh 29.98 in1015.2 mb 0.00 in0.0 mm 0.00 in0.0 mm 0.00 in0.0 mm
01:54 PM 70.0°F21.1°C 38.8°F3.8°C 32% 8.9 mph NW14.3 kmh NW 15.9 mph25.6 kmh 29.98 in1015.2 mb 0.00 in0.0 mm 0.00 in0.0 mm 0.00 in0.0 mm
01:59 PM 70.0°F21.1°C 39.6°F4.2°C 33% 7.6 mph WNW12.2 kmh WNW 15.9 mph25.6 kmh 29.98 in1015.2 mb 0.00 in0.0 mm 0.00 in0.0 mm 0.00 in0.0 mm
02:04 PM 70.0°F21.1°C 38.8°F3.8°C 32% 9.8 mph NW15.8 kmh NW 15.9 mph25.6 kmh 29.97 in1014.9 mb 0.00 in0.0 mm 0.00 in0.0 mm 0.00 in0.0 mm
02:09 PM 69.8°F21.0°C 37.8°F3.2°C 31% 8.7 mph WSW14.0 kmh WSW 14.8 mph23.8 kmh 29.97 in1014.9 mb 0.00 in0.0 mm 0.00 in0.0 mm 0.00 in0.0 mm
02:14 PM 69.6°F20.9°C 39.2°F4.0°C 33% 9.6 mph NW15.4 kmh NW 14.8 mph23.8 kmh 29.97 in1014.9 mb 0.00 in0.0 mm 0.00 in0.0 mm 0.00 in0.0 mm
02:19 PM 70.2°F21.2°C 40.5°F4.7°C 34% 5.6 mph NNW9.0 kmh NNW 15.9 mph25.6 kmh 29.97 in1014.9 mb 0.00 in0.0 mm 0.00 in0.0 mm 0.00 in0.0 mm
02:24 PM 70.2°F21.2°C 38.8°F3.8°C 32% 8.7 mph WNW14.0 kmh WNW 18.1 mph29.1 kmh 29.97 in1014.9 mb 0.00 in0.0 mm 0.00 in0.0 mm 0.00 in0.0 mm
02:29 PM 70.0°F21.1°C 38.8°F3.8°C 32% 10.1 mph NW16.3 kmh NW 18.1 mph29.1 kmh 29.97 in1014.9 mb 0.00 in0.0 mm 0.00 in0.0 mm 0.00 in0.0 mm
02:34 PM 70.0°F21.1°C 38.8°F3.8°C 32% 8.9 mph WSW14.3 kmh WSW 17.0 mph27.4 kmh 29.97 in1014.9 mb 0.00 in0.0 mm 0.00 in0.0 mm 0.00 in0.0 mm
02:39 PM 69.6°F20.9°C 38.5°F3.6°C 32% 10.1 mph NW16.3 kmh NW 17.0 mph27.4 kmh 29.97 in1014.9 mb 0.00 in0.0 mm 0.00 in0.0 mm 0.00 in0.0 mm
02:44 PM 69.4°F20.8°C 37.4°F3.0°C 31% 10.5 mph NW16.9 kmh NW 19.0 mph30.6 kmh 29.97 in1014.9 mb 0.00 in0.0 mm 0.00 in0.0 mm 0.00 in0.0 mm
02:49 PM 69.4°F20.8°C 38.3°F3.5°C 32% 8.9 mph NW14.3 kmh NW 17.0 mph27.4 kmh 29.96 in1014.6 mb 0.00 in0.0 mm 0.00 in0.0 mm 0.00 in0.0 mm
02:54 PM 69.6°F20.9°C 39.2°F4.0°C 33% 6.0 mph NNW9.7 kmh NNW 14.8 mph23.8 kmh 29.96 in1014.6 mb 0.00 in0.0 mm 0.00 in0.0 mm 0.00 in0.0 mm
02:59 PM 70.0°F21.1°C 39.6°F4.2°C 33% 7.8 mph WSW12.6 kmh WSW 13.9 mph22.4 kmh 29.96 in1014.6 mb 0.00 in0.0 mm 0.00 in0.0 mm 0.00 in0.0 mm
03:04 PM 70.2°F21.2°C 40.5°F4.7°C 34% 6.3 mph NW10.1 kmh NW 13.9 mph22.4 kmh 29.96 in1014.6 mb 0.00 in0.0 mm 0.00 in0.0 mm 0.00 in0.0 mm
03:09 PM 70.7°F21.5°C 41.7°F5.4°C 35% 8.3 mph WNW13.4 kmh WNW 14.8 mph23.8 kmh 29.96 in1014.6 mb 0.00 in0.0 mm 0.00 in0.0 mm 0.00 in0.0 mm
03:14 PM 71.1°F21.7°C 40.5°F4.7°C 33% 6.3 mph NNW10.1 kmh NNW 13.9 mph22.4 kmh 29.96 in1014.6 mb 0.00 in0.0 mm 0.00 in0.0 mm 0.00 in0.0 mm
03:19 PM 70.9°F21.6°C 41.2°F5.1°C 34% 7.8 mph NW12.6 kmh NW 14.8 mph23.8 kmh 29.96 in1014.6 mb 0.00 in0.0 mm 0.00 in0.0 mm 0.00 in0.0 mm
03:24 PM 70.5°F21.4°C 39.2°F4.0°C 32% 10.1 mph NW16.3 kmh NW 17.0 mph27.4 kmh 29.96 in1014.6 mb 0.00 in0.0 mm 0.00 in0.0 mm 0.00 in0.0 mm
03:29 PM 70.3°F21.3°C 40.6°F4.8°C 34% 8.3 mph WNW13.4 kmh WNW 17.0 mph27.4 kmh 29.96 in1014.6 mb 0.00 in0.0 mm 0.00 in0.0 mm 0.00 in0.0 mm
03:34 PM 70.5°F21.4°C 40.1°F4.5°C 33% 7.6 mph WNW12.2 kmh WNW 17.0 mph27.4 kmh 29.96 in1014.6 mb 0.00 in0.0 mm 0.00 in0.0 mm 0.00 in0.0 mm
03:39 PM 70.5°F21.4°C 40.1°F4.5°C 33% 6.0 mph WNW9.7 kmh WNW 17.0 mph27.4 kmh 29.96 in1014.6 mb 0.00 in0.0 mm 0.00 in0.0 mm 0.00 in0.0 mm
03:44 PM 70.3°F21.3°C 40.6°F4.8°C 34% 7.4 mph WNW11.9 kmh WNW 12.8 mph20.6 kmh 29.96 in1014.6 mb 0.00 in0.0 mm 0.00 in0.0 mm 0.00 in0.0 mm
03:49 PM 70.7°F21.5°C 40.1°F4.5°C 33% 6.0 mph NW9.7 kmh NW 13.9 mph22.4 kmh 29.96 in1014.6 mb 0.00 in0.0 mm 0.00 in0.0 mm 0.00 in0.0 mm
03:54 PM 70.5°F21.4°C 41.5°F5.3°C 35% 6.7 mph NW10.8 kmh NW 12.8 mph20.6 kmh 29.96 in1014.6 mb 0.00 in0.0 mm 0.00 in0.0 mm 0.00 in0.0 mm
03:59 PM 70.2°F21.2°C 39.7°F4.3°C 33% 7.2 mph NW11.6 kmh NW 12.8 mph20.6 kmh 29.96 in1014.6 mb 0.00 in0.0 mm 0.00 in0.0 mm 0.00 in0.0 mm
04:04 PM 70.0°F21.1°C 41.0°F5.0°C 35% 6.5 mph W10.5 kmh W 12.8 mph20.6 kmh 29.96 in1014.6 mb 0.00 in0.0 mm 0.00 in0.0 mm 0.00 in0.0 mm
04:09 PM 70.0°F21.1°C 43.2°F6.2°C 38% 4.0 mph NW6.4 kmh NW 9.6 mph15.4 kmh 29.97 in1014.9 mb 0.00 in0.0 mm 0.00 in0.0 mm 0.00 in0.0 mm
04:14 PM 70.0°F21.1°C 42.4°F5.8°C 37% 5.4 mph NW8.7 kmh NW 9.6 mph15.4 kmh 29.97 in1014.9 mb 0.00 in0.0 mm 0.00 in0.0 mm 0.00 in0.0 mm
04:19 PM 70.0°F21.1°C 43.2°F6.2°C 38% 6.5 mph WNW10.5 kmh WNW 12.8 mph20.6 kmh 29.97 in1014.9 mb 0.00 in0.0 mm 0.00 in0.0 mm 0.00 in0.0 mm
04:24 PM 69.4°F20.8°C 42.1°F5.6°C 37% 6.0 mph WNW9.7 kmh WNW 11.6 mph18.7 kmh 29.97 in1014.9 mb 0.00 in0.0 mm 0.00 in0.0 mm 0.00 in0.0 mm
04:29 PM 69.4°F20.8°C 43.3°F6.3°C 39% 4.3 mph NW6.9 kmh NW 12.8 mph20.6 kmh 29.97 in1014.9 mb 0.00 in0.0 mm 0.00 in0.0 mm 0.00 in0.0 mm
04:34 PM 69.3°F20.7°C 43.2°F6.2°C 39% 4.7 mph WSW7.6 kmh WSW 10.5 mph16.9 kmh 29.97 in1014.9 mb 0.00 in0.0 mm 0.00 in0.0 mm 0.00 in0.0 mm
04:39 PM 69.1°F20.6°C 43.7°F6.5°C 40% 4.0 mph N6.4 kmh N 7.4 mph11.9 kmh 29.97 in1014.9 mb 0.00 in0.0 mm 0.00 in0.0 mm 0.00 in0.0 mm
04:44 PM 69.1°F20.6°C 44.4°F6.9°C 41% 4.0 mph WNW6.4 kmh WNW 6.3 mph10.1 kmh 29.97 in1014.9 mb 0.00 in0.0 mm 0.00 in0.0 mm 0.00 in0.0 mm
04:49 PM 68.5°F20.3°C 43.9°F6.6°C 41% 5.4 mph W8.7 kmh W 9.6 mph15.4 kmh 29.97 in1014.9 mb 0.00 in0.0 mm 0.00 in0.0 mm 0.00 in0.0 mm
04:54 PM 68.0°F20.0°C 44.1°F6.7°C 42% 5.8 mph NW9.3 kmh NW 10.5 mph16.9 kmh 29.97 in1014.9 mb 0.00 in0.0 mm 0.00 in0.0 mm 0.00 in0.0 mm
04:59 PM 67.8°F19.9°C 44.4°F6.9°C 43% 4.0 mph NW6.4 kmh NW 10.5 mph16.9 kmh 29.97 in1014.9 mb 0.00 in0.0 mm 0.00 in0.0 mm 0.00 in0.0 mm
05:04 PM 68.2°F20.1°C 45.5°F7.5°C 44% 1.6 mph WNW2.6 kmh WNW 7.4 mph11.9 kmh 29.97 in1014.9 mb 0.00 in0.0 mm 0.00 in0.0 mm 0.00 in0.0 mm
05:09 PM 68.2°F20.1°C 46.0°F7.8°C 45% 2.7 mph WSW4.3 kmh WSW 7.4 mph11.9 kmh 29.97 in1014.9 mb 0.00 in0.0 mm 0.00 in0.0 mm 0.00 in0.0 mm
05:14 PM 68.0°F20.0°C 45.9°F7.7°C 45% 2.0 mph WSW3.2 kmh WSW 4.3 mph6.9 kmh 29.97 in1014.9 mb 0.00 in0.0 mm 0.00 in0.0 mm 0.00 in0.0 mm
05:19 PM 67.8°F19.9°C 45.7°F7.6°C 45% 3.4 mph NW5.5 kmh NW 7.4 mph11.9 kmh 29.97 in1014.9 mb 0.00 in0.0 mm 0.00 in0.0 mm 0.00 in0.0 mm
05:24 PM 67.6°F19.8°C 46.0°F7.8°C 46% Calm Calm 5.4 mph8.7 kmh 29.97 in1014.9 mb 0.00 in0.0 mm 0.00 in0.0 mm 0.00 in0.0 mm
05:29 PM 67.6°F19.8°C 45.5°F7.5°C 45% 2.7 mph WNW4.3 kmh WNW 5.4 mph8.7 kmh 29.97 in1014.9 mb 0.00 in0.0 mm 0.00 in0.0 mm 0.00 in0.0 mm
05:34 PM 67.1°F19.5°C 45.7°F7.6°C 46% 2.7 mph WSW4.3 kmh WSW 5.4 mph8.7 kmh 29.97 in1014.9 mb 0.00 in0.0 mm 0.00 in0.0 mm 0.00 in0.0 mm
05:39 PM 66.9°F19.4°C 46.0°F7.8°C 47% 2.2 mph WNW3.5 kmh WNW 5.4 mph8.7 kmh 29.97 in1014.9 mb 0.00 in0.0 mm 0.00 in0.0 mm 0.00 in0.0 mm
05:44 PM 66.7°F19.3°C 45.9°F7.7°C 47% 3.1 mph NW5.0 kmh NW 6.3 mph10.1 kmh 29.98 in1015.2 mb 0.00 in0.0 mm 0.00 in0.0 mm 0.00 in0.0 mm
05:49 PM 66.2°F19.0°C 45.9°F7.7°C 48% 3.8 mph N6.1 kmh N 6.3 mph10.1 kmh 29.98 in1015.2 mb 0.00 in0.0 mm 0.00 in0.0 mm 0.00 in0.0 mm
05:54 PM 65.7°F18.7°C 46.0°F7.8°C 49% 2.0 mph WSW3.2 kmh WSW 7.4 mph11.9 kmh 29.98 in1015.2 mb 0.00 in0.0 mm 0.00 in0.0 mm 0.00 in0.0 mm
05:59 PM 64.9°F18.3°C 46.4°F8.0°C 51% 2.7 mph W4.3 kmh W 4.3 mph6.9 kmh 29.98 in1015.2 mb 0.00 in0.0 mm 0.00 in0.0 mm 0.00 in0.0 mm
06:04 PM 64.6°F18.1°C 46.6°F8.1°C 52% 2.5 mph NW4.0 kmh NW 4.3 mph6.9 kmh 29.98 in1015.2 mb 0.00 in0.0 mm 0.00 in0.0 mm 0.00 in0.0 mm
06:09 PM 64.0°F17.8°C 46.6°F8.1°C 53% 0.7 mph NW1.1 kmh NW 4.3 mph6.9 kmh 29.97 in1014.9 mb 0.00 in0.0 mm 0.00 in0.0 mm 0.00 in0.0 mm
06:14 PM 63.9°F17.7°C 46.9°F8.3°C 54% 0.2 mph WNW0.3 kmh WNW 1.1 mph1.8 kmh 29.98 in1015.2 mb 0.00 in0.0 mm 0.00 in0.0 mm 0.00 in0.0 mm
06:19 PM 63.7°F17.6°C 47.3°F8.5°C 55% 0.9 mph WSW1.4 kmh WSW 3.1 mph5.0 kmh 29.98 in1015.2 mb 0.00 in0.0 mm 0.00 in0.0 mm 0.00 in0.0 mm
06:24 PM 63.3°F17.4°C 46.9°F8.3°C 55% 0.4 mph WNW0.6 kmh WNW 2.0 mph3.2 kmh 29.98 in1015.2 mb 0.00 in0.0 mm 0.00 in0.0 mm 0.00 in0.0 mm
06:29 PM 63.1°F17.3°C 47.1°F8.4°C 56% Calm Calm 4.3 mph6.9 kmh 29.98 in1015.2 mb 0.00 in0.0 mm 0.00 in0.0 mm 0.00 in0.0 mm
06:34 PM 62.8°F17.1°C 47.3°F8.5°C 57% 0.7 mph W1.1 kmh W 4.3 mph6.9 kmh 29.97 in1014.9 mb 0.00 in0.0 mm 0.00 in0.0 mm 0.00 in0.0 mm
06:39 PM 62.6°F17.0°C 47.1°F8.4°C 57% Calm Calm 3.1 mph5.0 kmh 29.98 in1015.2 mb 0.00 in0.0 mm 0.00 in0.0 mm 0.00 in0.0 mm
06:45 PM 62.2°F16.8°C 46.8°F8.2°C 57% Calm Calm -- 29.98 in1015.2 mb 0.00 in0.0 mm 0.00 in0.0 mm 0.00 in0.0 mm
06:50 PM 61.9°F16.6°C 46.9°F8.3°C 58% Calm Calm 1.1 mph1.8 kmh 29.98 in1015.2 mb 0.00 in0.0 mm 0.00 in0.0 mm 0.00 in0.0 mm
06:55 PM 61.5°F16.4°C 47.1°F8.4°C 59% Calm Calm -- 29.98 in1015.2 mb 0.00 in0.0 mm 0.00 in0.0 mm 0.00 in0.0 mm
07:00 PM 61.3°F16.3°C 46.9°F8.3°C 59% Calm Calm 1.1 mph1.8 kmh 29.98 in1015.2 mb 0.00 in0.0 mm 0.00 in0.0 mm 0.00 in0.0 mm
07:05 PM 61.2°F16.2°C 46.8°F8.2°C 59% Calm Calm -- 29.98 in1015.2 mb 0.00 in0.0 mm 0.00 in0.0 mm 0.00 in0.0 mm
07:10 PM 60.8°F16.0°C 46.8°F8.2°C 60% Calm Calm -- 29.98 in1015.2 mb 0.00 in0.0 mm 0.00 in0.0 mm 0.00 in0.0 mm
07:15 PM 60.4°F15.8°C 46.9°F8.3°C 61% Calm Calm -- 29.98 in1015.2 mb 0.00 in0.0 mm 0.00 in0.0 mm 0.00 in0.0 mm
07:20 PM 60.1°F15.6°C 46.9°F8.3°C 62% Calm Calm -- 29.99 in1015.6 mb 0.00 in0.0 mm 0.00 in0.0 mm 0.00 in0.0 mm
07:25 PM 59.7°F15.4°C 46.8°F8.2°C 62% Calm Calm -- 29.99 in1015.6 mb 0.00 in0.0 mm 0.00 in0.0 mm 0.00 in0.0 mm
07:30 PM 59.4°F15.2°C 45.9°F7.7°C 61% Calm Calm -- 29.99 in1015.6 mb 0.00 in0.0 mm 0.00 in0.0 mm 0.00 in0.0 mm
07:35 PM 59.0°F15.0°C 44.8°F7.1°C 59% Calm Calm -- 29.99 in1015.6 mb 0.00 in0.0 mm 0.00 in0.0 mm 0.00 in0.0 mm
07:40 PM 59.0°F15.0°C 44.2°F6.8°C 58% Calm Calm -- 29.99 in1015.6 mb 0.00 in0.0 mm 0.00 in0.0 mm 0.00 in0.0 mm
07:45 PM 59.2°F15.1°C 43.9°F6.6°C 57% Calm Calm -- 29.99 in1015.6 mb 0.00 in0.0 mm 0.00 in0.0 mm 0.00 in0.0 mm
07:50 PM 59.5°F15.3°C 43.9°F6.6°C 56% Calm Calm 2.0 mph3.2 kmh 29.99 in1015.6 mb 0.00 in0.0 mm 0.00 in0.0 mm 0.00 in0.0 mm
07:55 PM 59.5°F15.3°C 43.9°F6.6°C 56% Calm Calm -- 29.99 in1015.6 mb 0.00 in0.0 mm 0.00 in0.0 mm 0.00 in0.0 mm
08:00 PM 59.4°F15.2°C 43.7°F6.5°C 56% Calm Calm -- 29.99 in1015.6 mb 0.00 in0.0 mm 0.00 in0.0 mm 0.00 in0.0 mm
08:05 PM 59.4°F15.2°C 44.1°F6.7°C 57% Calm Calm -- 29.99 in1015.6 mb 0.00 in0.0 mm 0.00 in0.0 mm 0.00 in0.0 mm
08:10 PM 59.2°F15.1°C 43.9°F6.6°C 57% Calm Calm -- 29.99 in1015.6 mb 0.00 in0.0 mm 0.00 in0.0 mm 0.00 in0.0 mm
08:15 PM 58.6°F14.8°C 43.9°F6.6°C 58% Calm Calm -- 30.00 in1015.9 mb 0.00 in0.0 mm 0.00 in0.0 mm 0.00 in0.0 mm
08:20 PM 58.5°F14.7°C 44.2°F6.8°C 59% Calm Calm -- 30.00 in1015.9 mb 0.00 in0.0 mm 0.00 in0.0 mm 0.00 in0.0 mm
08:25 PM 58.3°F14.6°C 44.1°F6.7°C 59% Calm Calm -- 30.00 in1015.9 mb 0.00 in0.0 mm 0.00 in0.0 mm 0.00 in0.0 mm
08:30 PM 58.5°F14.7°C 44.2°F6.8°C 59% Calm Calm -- 30.00 in1015.9 mb 0.00 in0.0 mm 0.00 in0.0 mm 0.00 in0.0 mm
08:35 PM 58.5°F14.7°C 44.6°F7.0°C 60% Calm Calm -- 30.00 in1015.9 mb 0.00 in0.0 mm 0.00 in0.0 mm 0.00 in0.0 mm
08:40 PM 57.9°F14.4°C 44.1°F6.7°C 60% Calm Calm -- 30.00 in1015.9 mb 0.00 in0.0 mm 0.00 in0.0 mm 0.00 in0.0 mm
08:45 PM 57.6°F14.2°C 44.6°F7.0°C 62% Calm Calm -- 30.01 in1016.3 mb 0.00 in0.0 mm 0.00 in0.0 mm 0.00 in0.0 mm
08:50 PM 57.2°F14.0°C 44.8°F7.1°C 63% Calm Calm -- 30.01 in1016.3 mb 0.00 in0.0 mm 0.00 in0.0 mm 0.00 in0.0 mm
08:55 PM 56.7°F13.7°C 44.6°F7.0°C 64% Calm Calm -- 30.01 in1016.3 mb 0.00 in0.0 mm 0.00 in0.0 mm 0.00 in0.0 mm
09:00 PM 56.3°F13.5°C 44.6°F7.0°C 65% Calm Calm -- 30.01 in1016.3 mb 0.00 in0.0 mm 0.00 in0.0 mm 0.00 in0.0 mm
09:05 PM 56.1°F13.4°C 44.6°F7.0°C 65% Calm Calm -- 30.01 in1016.3 mb 0.00 in0.0 mm 0.00 in0.0 mm 0.00 in0.0 mm
09:10 PM 55.9°F13.3°C 44.4°F6.9°C 65% Calm Calm -- 30.02 in1016.6 mb 0.00 in0.0 mm 0.00 in0.0 mm 0.00 in0.0 mm
09:15 PM 56.1°F13.4°C 44.6°F7.0°C 65% Calm Calm -- 30.01 in1016.3 mb 0.00 in0.0 mm 0.00 in0.0 mm 0.00 in0.0 mm
09:20 PM 56.1°F13.4°C 44.1°F6.7°C 64% Calm Calm -- 30.01 in1016.3 mb 0.00 in0.0 mm 0.00 in0.0 mm 0.00 in0.0 mm
09:25 PM 56.1°F13.4°C 44.1°F6.7°C 64% Calm Calm -- 30.02 in1016.6 mb 0.00 in0.0 mm 0.00 in0.0 mm 0.00 in0.0 mm
09:30 PM 55.9°F13.3°C 43.5°F6.4°C 63% Calm Calm -- 30.02 in1016.6 mb 0.00 in0.0 mm 0.00 in0.0 mm 0.00 in0.0 mm
09:35 PM 56.1°F13.4°C 44.1°F6.7°C 64% Calm Calm -- 30.02 in1016.6 mb 0.00 in0.0 mm 0.00 in0.0 mm 0.00 in0.0 mm
09:40 PM 55.9°F13.3°C 43.9°F6.6°C 64% Calm Calm -- 30.02 in1016.6 mb 0.00 in0.0 mm 0.00 in0.0 mm 0.00 in0.0 mm
09:45 PM 55.6°F13.1°C 43.5°F6.4°C 64% Calm Calm -- 30.01 in1016.3 mb 0.00 in0.0 mm 0.00 in0.0 mm 0.00 in0.0 mm
09:50 PM 55.0°F12.8°C 43.5°F6.4°C 65% Calm Calm -- 30.01 in1016.3 mb 0.00 in0.0 mm 0.00 in0.0 mm 0.00 in0.0 mm
09:55 PM 54.9°F12.7°C 43.3°F6.3°C 65% Calm Calm -- 30.01 in1016.3 mb 0.00 in0.0 mm 0.00 in0.0 mm 0.00 in0.0 mm
10:00 PM 55.0°F12.8°C 42.6°F5.9°C 63% Calm Calm -- 30.01 in1016.3 mb 0.00 in0.0 mm 0.00 in0.0 mm 0.00 in0.0 mm
10:05 PM 55.2°F12.9°C 42.1°F5.6°C 61% Calm Calm -- 30.01 in1016.3 mb 0.00 in0.0 mm 0.00 in0.0 mm 0.00 in0.0 mm
10:10 PM 55.2°F12.9°C 42.4°F5.8°C 62% Calm Calm -- 30.01 in1016.3 mb 0.00 in0.0 mm 0.00 in0.0 mm 0.00 in0.0 mm
10:15 PM 54.9°F12.7°C 42.4°F5.8°C 63% Calm Calm -- 30.01 in1016.3 mb 0.00 in0.0 mm 0.00 in0.0 mm 0.00 in0.0 mm
10:20 PM 54.3°F12.4°C 41.5°F5.3°C 62% Calm Calm -- 30.01 in1016.3 mb 0.00 in0.0 mm 0.00 in0.0 mm 0.00 in0.0 mm
10:25 PM 54.7°F12.6°C 41.9°F5.5°C 62% Calm Calm -- 30.01 in1016.3 mb 0.00 in0.0 mm 0.00 in0.0 mm 0.00 in0.0 mm
10:30 PM 54.7°F12.6°C 41.9°F5.5°C 62% Calm Calm -- 30.01 in1016.3 mb 0.00 in0.0 mm 0.00 in0.0 mm 0.00 in0.0 mm
10:35 PM 54.3°F12.4°C 42.8°F6.0°C 65% Calm Calm -- 30.01 in1016.3 mb 0.00 in0.0 mm 0.00 in0.0 mm 0.00 in0.0 mm
10:40 PM 54.7°F12.6°C 43.9°F6.6°C 67% Calm Calm -- 30.01 in1016.3 mb 0.00 in0.0 mm 0.00 in0.0 mm 0.00 in0.0 mm
10:45 PM 54.7°F12.6°C 43.5°F6.4°C 66% Calm Calm -- 30.01 in1016.3 mb 0.00 in0.0 mm 0.00 in0.0 mm 0.00 in0.0 mm
10:50 PM 54.1°F12.3°C 43.0°F6.1°C 66% Calm Calm -- 30.01 in1016.3 mb 0.00 in0.0 mm 0.00 in0.0 mm 0.00 in0.0 mm
10:55 PM 53.8°F12.1°C 43.9°F6.6°C 69% Calm Calm -- 30.01 in1016.3 mb 0.00 in0.0 mm 0.00 in0.0 mm 0.00 in0.0 mm
11:00 PM 53.8°F12.1°C 43.5°F6.4°C 68% Calm Calm 1.1 mph1.8 kmh 30.01 in1016.3 mb 0.00 in0.0 mm 0.00 in0.0 mm 0.00 in0.0 mm
11:05 PM 53.8°F12.1°C 43.9°F6.6°C 69% Calm Calm -- 30.02 in1016.6 mb 0.00 in0.0 mm 0.00 in0.0 mm 0.00 in0.0 mm
11:10 PM 53.6°F12.0°C 44.1°F6.7°C 70% Calm Calm -- 30.01 in1016.3 mb 0.00 in0.0 mm 0.00 in0.0 mm 0.00 in0.0 mm
11:15 PM 53.8°F12.1°C 44.6°F7.0°C 71% Calm Calm 1.1 mph1.8 kmh 30.02 in1016.6 mb 0.00 in0.0 mm 0.00 in0.0 mm 0.00 in0.0 mm
11:20 PM 53.4°F11.9°C 43.9°F6.6°C 70% Calm Calm -- 30.02 in1016.6 mb 0.00 in0.0 mm 0.00 in0.0 mm 0.00 in0.0 mm
11:25 PM 53.2°F11.8°C 43.7°F6.5°C 70% Calm Calm -- 30.02 in1016.6 mb 0.00 in0.0 mm 0.00 in0.0 mm 0.00 in0.0 mm
11:30 PM 52.9°F11.6°C 43.3°F6.3°C 70% Calm Calm -- 30.02 in1016.6 mb 0.00 in0.0 mm 0.00 in0.0 mm 0.00 in0.0 mm
11:35 PM 52.9°F11.6°C 43.7°F6.5°C 71% Calm Calm -- 30.02 in1016.6 mb 0.00 in0.0 mm 0.00 in0.0 mm 0.00 in0.0 mm
11:40 PM 52.5°F11.4°C 43.0°F6.1°C 70% Calm Calm -- 30.02 in1016.6 mb 0.00 in0.0 mm 0.00 in0.0 mm 0.00 in0.0 mm
11:45 PM 52.3°F11.3°C 43.2°F6.2°C 71% Calm Calm -- 30.01 in1016.3 mb 0.00 in0.0 mm 0.00 in0.0 mm 0.00 in0.0 mm
11:50 PM 52.3°F11.3°C 43.5°F6.4°C 72% Calm Calm -- 30.01 in1016.3 mb 0.00 in0.0 mm 0.00 in0.0 mm 0.00 in0.0 mm
11:55 PM 52.3°F11.3°C 43.5°F6.4°C 72% Calm Calm 1.1 mph1.8 kmh 30.01 in1016.3 mb 0.00 in0.0 mm 0.00 in0.0 mm 0.00 in0.0 mm